Time;durP1;ratioP1;P1;durP2;ratioP2;P2;SDS_P1;SDS_P2;PMS_P1;PMS_P2;Temp;Humidity;BMP_temperature;BMP_pressure;BME280_temperature;BME280_humidity;BME280_pressure;Samples;Min_cycle;Max_cycle;Signal;HPM_P1;HPM_P2
2022/07/15 00:00:10;;;;;;;6.50;6.20;;;;;;;-143.83;100.00;62900.06;5111694;28;20024;-62
2022/07/15 00:02:39;;;;;;;6.40;6.10;;;;;;;-143.83;100.00;62900.06;5111943;28;20020;-61
2022/07/15 00:05:07;;;;;;;6.40;6.10;;;;;;;-143.83;100.00;62900.06;5116143;28;20027;-62
2022/07/15 00:07:34;;;;;;;6.40;6.10;;;;;;;-143.83;100.00;62900.06;5113678;28;20364;-62
2022/07/15 00:10:14;;;;;;;6.70;6.40;;;;;;;-143.83;100.00;62900.06;5115477;28;20023;-61
2022/07/15 00:12:41;;;;;;;6.50;6.20;;;;;;;-143.83;100.00;62900.06;5118857;27;20084;-62
2022/07/15 00:15:07;;;;;;;6.40;6.10;;;;;;;-143.83;100.00;62900.06;5109518;27;20027;-62
2022/07/15 00:17:34;;;;;;;6.50;6.20;;;;;;;-143.83;100.00;62900.06;5107714;27;20024;-62
2022/07/15 00:19:59;;;;;;;6.22;6.00;;;;;;;-143.83;100.00;62900.06;5109084;28;20039;-62
2022/07/15 00:22:25;;;;;;;6.50;6.20;;;;;;;-143.83;100.00;62900.06;5094946;28;20024;-62
2022/07/15 00:24:51;;;;;;;6.60;6.30;;;;;;;-143.83;100.00;62900.06;5114322;28;20080;-62
2022/07/15 00:27:16;;;;;;;6.47;6.18;;;;;;;-143.83;100.00;62900.06;5112083;28;20471;-62
2022/07/15 00:29:42;;;;;;;6.55;6.25;;;;;;;-143.83;100.00;62900.06;5108401;27;20076;-62
2022/07/15 00:32:07;;;;;;;6.40;6.10;;;;;;;-143.83;100.00;62900.06;5115198;28;20024;-60
2022/07/15 00:34:33;;;;;;;6.40;6.10;;;;;;;-143.83;100.00;62900.06;5115152;28;20033;-62
2022/07/15 00:36:58;;;;;;;6.78;6.47;;;;;;;-143.83;100.00;62900.06;5114459;28;20115;-62
2022/07/15 00:39:24;;;;;;;7.10;6.80;;;;;;;-143.83;100.00;62900.06;5100359;28;20083;-62
2022/07/15 00:41:50;;;;;;;6.60;6.30;;;;;;;-143.83;100.00;62900.06;5100709;28;20453;-61
2022/07/15 00:44:15;;;;;;;6.60;6.30;;;;;;;-143.83;100.00;62900.06;5110720;28;20032;-61
2022/07/15 00:46:41;;;;;;;6.60;6.30;;;;;;;-143.83;100.00;62900.06;5108828;27;20106;-62
2022/07/15 00:49:08;;;;;;;6.60;6.30;;;;;;;-143.83;100.00;62900.06;5115243;28;20052;-60
2022/07/15 00:51:37;;;;;;;6.70;6.40;;;;;;;-143.83;100.00;62900.06;5123182;27;20031;-62
2022/07/15 00:54:05;;;;;;;6.60;6.30;;;;;;;-143.83;100.00;62900.06;5101274;28;20034;-61
2022/07/15 00:56:38;;;;;;;6.60;6.30;;;;;;;-143.83;100.00;62900.06;5114607;28;20051;-62
2022/07/15 00:59:05;;;;;;;6.60;6.30;;;;;;;-143.83;100.00;62900.06;5101655;28;20068;-61
2022/07/15 01:01:35;;;;;;;6.50;6.20;;;;;;;-143.83;100.00;62900.06;5109751;28;20035;-62
2022/07/15 01:04:03;;;;;;;6.60;6.30;;;;;;;-143.83;100.00;62900.06;5111973;27;20027;-61
2022/07/15 01:06:29;;;;;;;6.20;6.00;;;;;;;-143.83;100.00;62900.06;5114379;28;20024;-62
2022/07/15 01:08:54;;;;;;;6.93;6.63;;;;;;;-143.83;100.00;62900.06;5099522;28;20031;-61
2022/07/15 01:11:20;;;;;;;6.50;6.20;;;;;;;-143.83;100.00;62900.06;5114323;28;20035;-62
2022/07/15 01:13:46;;;;;;;6.60;6.30;;;;;;;-143.83;100.00;62900.06;5114350;28;20479;-62
2022/07/15 01:16:12;;;;;;;6.60;6.30;;;;;;;-143.83;100.00;62900.06;5104427;28;20035;-62
2022/07/15 01:18:38;;;;;;;6.60;6.30;;;;;;;-143.83;100.00;62900.06;5109235;28;20469;-62
2022/07/15 01:21:03;;;;;;;6.75;6.45;;;;;;;-143.83;100.00;62900.06;5119468;27;20031;-61
2022/07/15 01:23:29;;;;;;;6.85;6.55;;;;;;;-143.83;100.00;62900.06;5113735;28;20022;-61
2022/07/15 01:25:55;;;;;;;6.60;6.30;;;;;;;-143.83;100.00;62900.06;5113843;28;20024;-62
2022/07/15 01:28:21;;;;;;;6.55;6.25;;;;;;;-143.83;100.00;62900.06;5114445;28;20029;-62
2022/07/15 01:30:46;;;;;;;6.28;6.07;;;;;;;-143.83;100.00;62900.06;5101318;27;20441;-62
2022/07/15 01:33:12;;;;;;;6.50;6.20;;;;;;;-143.83;100.00;62900.06;5113982;28;20019;-61
2022/07/15 01:35:37;;;;;;;6.60;6.30;;;;;;;-143.83;100.00;62900.06;5113638;28;20020;-62
2022/07/15 01:38:03;;;;;;;6.90;6.60;;;;;;;-143.83;100.00;62900.06;5114259;27;20073;-60
2022/07/15 01:40:29;;;;;;;6.60;6.30;;;;;;;-143.83;100.00;62900.06;5106665;28;20046;-61
2022/07/15 01:42:54;;;;;;;6.60;6.30;;;;;;;-143.83;100.00;62900.06;5110368;28;20066;-62
2022/07/15 01:45:20;;;;;;;6.60;6.30;;;;;;;-143.83;100.00;62900.06;5113584;28;20038;-62
2022/07/15 01:47:47;;;;;;;6.60;6.30;;;;;;;-143.83;100.00;62900.06;5116850;27;20543;-62
2022/07/15 01:50:14;;;;;;;6.50;6.20;;;;;;;-143.83;100.00;62900.06;5113731;28;20036;-62
2022/07/15 01:52:40;;;;;;;6.60;6.30;;;;;;;-143.83;100.00;62900.06;5113273;28;20041;-62
2022/07/15 01:55:07;;;;;;;6.50;6.20;;;;;;;-143.83;100.00;62900.06;5114358;27;20106;-62
2022/07/15 01:57:33;;;;;;;6.40;6.10;;;;;;;-143.83;100.00;62900.06;5113183;28;20031;-63
2022/07/15 01:59:58;;;;;;;6.68;6.38;;;;;;;-143.83;100.00;62900.06;5113746;28;20073;-62
2022/07/15 02:02:24;;;;;;;6.90;6.60;;;;;;;-143.83;100.00;62900.06;5112902;28;20016;-62
2022/07/15 02:04:50;;;;;;;6.60;6.30;;;;;;;-143.83;100.00;62900.06;5113405;28;20027;-62
2022/07/15 02:07:15;;;;;;;6.70;6.40;;;;;;;-143.83;100.00;62900.06;5113139;28;20432;-62
2022/07/15 02:09:42;;;;;;;6.70;6.40;;;;;;;-143.83;100.00;62900.06;5113179;28;20027;-61
2022/07/15 02:12:07;;;;;;;6.50;6.20;;;;;;;-143.83;100.00;62900.06;5113924;27;20106;-61
2022/07/15 02:14:34;;;;;;;6.40;6.10;;;;;;;-143.83;100.00;62900.06;5112391;28;20104;-62
2022/07/15 02:17:00;;;;;;;6.50;6.20;;;;;;;-143.83;100.00;62900.06;5113458;28;20031;-62
2022/07/15 02:19:26;;;;;;;6.20;6.00;;;;;;;-143.83;100.00;62900.06;5113089;28;20043;-62
2022/07/15 02:21:51;;;;;;;6.70;6.40;;;;;;;-143.83;100.00;62900.06;5113078;28;20120;-61
2022/07/15 02:24:19;;;;;;;6.65;6.35;;;;;;;-143.83;100.00;62900.06;5108846;28;20106;-61
2022/07/15 02:26:45;;;;;;;6.75;6.45;;;;;;;-143.83;100.00;62900.06;5107062;28;20027;-61
2022/07/15 02:29:11;;;;;;;6.53;6.22;;;;;;;-143.83;100.00;62900.06;5110716;28;20051;-62
2022/07/15 02:31:36;;;;;;;6.50;6.20;;;;;;;-143.83;100.00;62900.06;5108761;28;20130;-61
2022/07/15 02:34:02;;;;;;;6.40;6.10;;;;;;;-143.83;100.00;62900.06;5102911;28;20026;-61
2022/07/15 02:36:28;;;;;;;6.60;6.30;;;;;;;-143.83;100.00;62900.06;5112656;28;20499;-60
2022/07/15 02:38:54;;;;;;;6.45;6.15;;;;;;;-143.83;100.00;62900.06;5112623;28;20071;-62
2022/07/15 02:41:19;;;;;;;6.63;6.32;;;;;;;-143.83;100.00;62900.06;5106807;28;20031;-61
2022/07/15 02:43:44;;;;;;;6.60;6.30;;;;;;;-143.83;100.00;62900.06;5118020;27;20088;-62
2022/07/15 02:46:10;;;;;;;6.60;6.30;;;;;;;-143.83;100.00;62900.06;5116591;27;20410;-62
2022/07/15 02:48:37;;;;;;;6.40;6.10;;;;;;;-143.83;100.00;62900.06;5112683;28;20111;-62
2022/07/15 02:51:03;;;;;;;6.70;6.40;;;;;;;-143.83;100.00;62900.06;5112434;28;20112;-61
2022/07/15 02:53:29;;;;;;;6.80;6.50;;;;;;;-143.83;100.00;62900.06;5105540;28;20414;-61
2022/07/15 02:55:58;;;;;;;6.70;6.40;;;;;;;-143.83;100.00;62900.06;5103652;28;20031;-62
2022/07/15 02:58:24;;;;;;;6.60;6.30;;;;;;;-143.83;100.00;62900.06;5112492;28;20063;-62
2022/07/15 03:00:50;;;;;;;6.65;6.35;;;;;;;-143.83;100.00;62900.06;5110685;27;20039;-62
2022/07/15 03:03:16;;;;;;;6.45;6.15;;;;;;;-143.83;100.00;62900.06;5115574;27;20448;-62
2022/07/15 03:05:41;;;;;;;6.55;6.25;;;;;;;-143.83;100.00;62900.06;5112296;28;20027;-62
2022/07/15 03:08:07;;;;;;;6.55;6.25;;;;;;;-143.83;100.00;62900.06;5112040;28;20110;-62
2022/07/15 03:10:33;;;;;;;6.90;6.60;;;;;;;-143.83;100.00;62900.06;5103852;28;20024;-61
2022/07/15 03:12:59;;;;;;;6.68;6.38;;;;;;;-143.83;100.00;62900.06;5106262;28;20451;-62
2022/07/15 03:15:25;;;;;;;6.90;6.60;;;;;;;-143.83;100.00;62900.06;5111477;28;20038;-62
2022/07/15 03:17:51;;;;;;;6.68;6.38;;;;;;;-143.83;100.00;62900.06;5103355;28;20039;-61
2022/07/15 03:20:17;;;;;;;6.65;6.35;;;;;;;-143.83;100.00;62900.06;5109915;28;20024;-61
2022/07/15 03:22:42;;;;;;;6.90;6.60;;;;;;;-143.83;100.00;62900.06;5111624;28;20110;-61
2022/07/15 03:25:08;;;;;;;6.88;6.57;;;;;;;-143.83;100.00;62900.06;5111930;28;20028;-61
2022/07/15 03:27:33;;;;;;;6.57;6.28;;;;;;;-143.83;100.00;62900.06;5109870;28;20106;-61
2022/07/15 03:29:59;;;;;;;6.60;6.30;;;;;;;-143.83;100.00;62900.06;5094820;28;20044;-62
2022/07/15 03:32:25;;;;;;;6.80;6.50;;;;;;;-143.83;100.00;62900.06;5111807;28;20020;-61
2022/07/15 03:34:51;;;;;;;7.00;6.70;;;;;;;-143.83;100.00;62900.06;5110925;28;20035;-61
2022/07/15 03:37:17;;;;;;;7.00;6.70;;;;;;;-143.83;100.00;62900.06;5112862;28;20024;-61
2022/07/15 03:39:42;;;;;;;7.00;6.70;;;;;;;-143.83;100.00;62900.06;5114812;28;20116;-60
2022/07/15 03:42:08;;;;;;;6.97;6.68;;;;;;;-143.83;100.00;62900.06;5116528;27;20063;-61
2022/07/15 03:44:34;;;;;;;6.90;6.60;;;;;;;-143.83;100.00;62900.06;5114929;28;20110;-62
2022/07/15 03:46:59;;;;;;;6.97;6.68;;;;;;;-143.83;100.00;62900.06;5115287;28;20138;-61
2022/07/15 03:49:25;;;;;;;6.80;6.50;;;;;;;-143.83;100.00;62900.06;5115993;28;20122;-62
2022/07/15 03:51:51;;;;;;;7.00;6.70;;;;;;;-143.83;100.00;62900.06;5107869;28;20452;-61
2022/07/15 03:54:16;;;;;;;6.90;6.60;;;;;;;-143.83;100.00;62900.06;5114262;27;20031;-62
2022/07/15 03:56:42;;;;;;;6.88;6.57;;;;;;;-143.83;100.00;62900.06;5115401;28;20023;-62
2022/07/15 03:59:07;;;;;;;6.80;6.50;;;;;;;-143.83;100.00;62900.06;5115131;28;20073;-62
2022/07/15 04:01:33;;;;;;;7.10;6.80;;;;;;;-143.83;100.00;62900.06;5115366;28;20040;-62
2022/07/15 04:03:59;;;;;;;7.20;6.90;;;;;;;-143.83;100.00;62900.06;5116048;27;20019;-62
2022/07/15 04:06:25;;;;;;;7.05;6.75;;;;;;;-143.83;100.00;62900.06;5124551;27;20031;-63
2022/07/15 04:08:51;;;;;;;7.07;6.78;;;;;;;-143.83;100.00;62900.06;5108211;28;20359;-63
2022/07/15 04:11:18;;;;;;;7.20;6.90;;;;;;;-143.83;100.00;62900.06;5115842;27;20478;-63
2022/07/15 04:13:44;;;;;;;7.05;6.75;;;;;;;-143.83;100.00;62900.06;5113811;28;20490;-62
2022/07/15 04:16:11;;;;;;;7.13;6.82;;;;;;;-143.83;100.00;62900.06;5113909;28;20035;-63
2022/07/15 04:18:37;;;;;;;7.10;6.80;;;;;;;-143.83;100.00;62900.06;5109818;28;20024;-62
2022/07/15 04:21:03;;;;;;;7.20;6.90;;;;;;;-143.83;100.00;62900.06;5106669;28;20027;-61
2022/07/15 04:23:28;;;;;;;6.90;6.60;;;;;;;-143.83;100.00;62900.06;5113481;28;20498;-62
2022/07/15 04:25:54;;;;;;;7.07;6.78;;;;;;;-143.83;100.00;62900.06;5106590;28;20065;-62
2022/07/15 04:28:21;;;;;;;7.10;6.80;;;;;;;-143.83;100.00;62900.06;5126589;27;20031;-62
2022/07/15 04:30:47;;;;;;;7.18;6.88;;;;;;;-143.83;100.00;62900.06;5114244;28;20031;-63
2022/07/15 04:33:12;;;;;;;6.95;6.65;;;;;;;-143.83;100.00;62900.06;5114296;28;20098;-62
2022/07/15 04:35:38;;;;;;;7.05;6.75;;;;;;;-143.83;100.00;62900.06;5110701;28;20035;-62
2022/07/15 04:38:05;;;;;;;7.10;6.80;;;;;;;-143.83;100.00;62900.06;5121286;27;20027;-62
2022/07/15 04:40:32;;;;;;;7.00;6.70;;;;;;;-143.83;100.00;62900.06;5112904;28;20035;-62
2022/07/15 04:42:58;;;;;;;7.07;6.78;;;;;;;-143.83;100.00;62900.06;5109978;27;20024;-63
2022/07/15 04:45:24;;;;;;;7.20;6.90;;;;;;;-143.83;100.00;62900.06;5111822;27;20363;-64
2022/07/15 04:47:50;;;;;;;6.90;6.60;;;;;;;-143.83;100.00;62900.06;5118607;27;20041;-63
2022/07/15 04:52:59;;;;;;;7.00;6.70;;;;;;;-143.83;100.00;62900.06;5119577;27;20089;-64
2022/07/15 04:55:26;;;;;;;7.00;6.70;;;;;;;-143.83;100.00;62900.06;5118118;27;20031;-65
2022/07/15 04:57:52;;;;;;;6.95;6.65;;;;;;;-143.83;100.00;62900.06;5111277;27;20034;-64
2022/07/15 05:00:19;;;;;;;7.00;6.70;;;;;;;-143.83;100.00;62900.06;5105226;28;20398;-64
2022/07/15 05:02:45;;;;;;;7.18;6.88;;;;;;;-143.83;100.00;62900.06;5112100;28;20479;-64
2022/07/15 05:05:10;;;;;;;7.15;6.85;;;;;;;-143.83;100.00;62900.06;5112729;28;20039;-64
2022/07/15 05:07:36;;;;;;;7.22;6.93;;;;;;;-143.83;100.00;62900.06;5113350;28;20103;-64
2022/07/15 05:10:04;;;;;;;7.20;6.90;;;;;;;-143.83;100.00;62900.06;5111947;28;20027;-65
2022/07/15 05:12:29;;;;;;;7.25;6.95;;;;;;;-143.83;100.00;62900.06;5111630;27;20030;-64
2022/07/15 05:14:55;;;;;;;7.13;6.82;;;;;;;-143.83;100.00;62900.06;5106236;28;20024;-64
2022/07/15 05:17:21;;;;;;;7.40;7.10;;;;;;;-143.83;100.00;62900.06;5112507;27;20091;-64
2022/07/15 05:19:46;;;;;;;7.47;7.18;;;;;;;-143.83;100.00;62900.06;5113888;28;20023;-64
2022/07/15 05:22:11;;;;;;;7.03;6.72;;;;;;;-143.83;100.00;62900.06;5113726;28;20395;-64
2022/07/15 05:24:37;;;;;;;7.10;6.80;;;;;;;-143.83;100.00;62900.06;5112169;27;20068;-64
2022/07/15 05:27:03;;;;;;;7.30;7.00;;;;;;;-143.83;100.00;62900.06;5101266;28;20039;-64
2022/07/15 05:29:28;;;;;;;7.15;6.85;;;;;;;-143.83;100.00;62900.06;5112424;27;20429;-65
2022/07/15 05:31:54;;;;;;;7.20;6.90;;;;;;;-143.83;100.00;62900.06;5109410;27;20019;-65
2022/07/15 05:34:19;;;;;;;7.30;7.00;;;;;;;-143.83;100.00;62900.06;5107275;27;20498;-64
2022/07/15 05:36:45;;;;;;;7.18;6.88;;;;;;;-143.83;100.00;62900.06;5122542;27;20474;-63
2022/07/15 05:39:11;;;;;;;7.22;6.93;;;;;;;-143.83;100.00;62900.06;5117374;27;20062;-63
2022/07/15 05:41:36;;;;;;;7.40;7.10;;;;;;;-143.83;100.00;62900.06;5106074;27;20028;-62
2022/07/15 05:44:02;;;;;;;7.40;7.10;;;;;;;-143.83;100.00;62900.06;5113727;28;20100;-62
2022/07/15 05:46:28;;;;;;;7.38;7.07;;;;;;;-143.83;100.00;62900.06;5113480;28;20582;-63
2022/07/15 05:48:54;;;;;;;7.53;7.22;;;;;;;-143.83;100.00;62900.06;5111330;28;20044;-63
2022/07/15 05:51:19;;;;;;;7.45;7.15;;;;;;;-143.83;100.00;62900.06;5104482;27;20067;-62
2022/07/15 05:53:45;;;;;;;7.47;7.18;;;;;;;-143.83;100.00;62900.06;5109419;27;20376;-62
2022/07/15 05:56:11;;;;;;;7.55;7.25;;;;;;;-143.83;100.00;62900.06;5106317;28;20031;-63
2022/07/15 05:58:37;;;;;;;7.32;7.03;;;;;;;-143.83;100.00;62900.06;5111584;28;20030;-62
2022/07/15 06:01:03;;;;;;;7.70;7.40;;;;;;;-143.83;100.00;62900.06;5111507;28;20015;-63
2022/07/15 06:03:29;;;;;;;7.57;7.28;;;;;;;-143.83;100.00;62900.06;5113410;28;20027;-63
2022/07/15 06:05:55;;;;;;;7.55;7.25;;;;;;;-143.83;100.00;62900.06;5098984;28;20126;-63
2022/07/15 06:08:20;;;;;;;7.30;7.00;;;;;;;-143.83;100.00;62900.06;5100852;28;20456;-63
2022/07/15 06:10:46;;;;;;;7.43;7.13;;;;;;;-143.83;100.00;62900.06;5111720;28;20507;-63
2022/07/15 06:13:12;;;;;;;7.15;6.85;;;;;;;-143.83;100.00;62900.06;5113217;28;20107;-62
2022/07/15 06:15:37;;;;;;;7.28;6.97;;;;;;;-143.83;100.00;62900.06;5112821;28;20047;-63
2022/07/15 06:18:03;;;;;;;7.47;7.18;;;;;;;-143.83;100.00;62900.06;5112890;28;20097;-62
2022/07/15 06:20:29;;;;;;;7.40;7.10;;;;;;;-143.83;100.00;62900.06;5113398;28;20035;-62
2022/07/15 06:22:55;;;;;;;7.47;7.18;;;;;;;-143.83;100.00;62900.06;5112992;28;20040;-63
2022/07/15 06:25:20;;;;;;;7.45;7.15;;;;;;;-143.83;100.00;62900.06;5101431;28;20383;-62
2022/07/15 06:27:46;;;;;;;7.63;7.32;;;;;;;-143.83;100.00;62900.06;5111068;28;20058;-63
2022/07/15 06:30:12;;;;;;;7.45;7.15;;;;;;;-143.83;100.00;62900.06;5113023;28;20041;-63
2022/07/15 06:32:38;;;;;;;7.20;6.90;;;;;;;-143.83;100.00;62900.06;5119518;27;20022;-63
2022/07/15 06:35:05;;;;;;;7.00;6.70;;;;;;;-143.83;100.00;62900.06;5115995;27;20106;-63
2022/07/15 06:37:31;;;;;;;6.95;6.65;;;;;;;-143.83;100.00;62900.06;5104478;28;20019;-63
2022/07/15 06:39:56;;;;;;;6.70;6.40;;;;;;;-143.83;100.00;62900.06;5112398;28;20503;-63
2022/07/15 06:42:22;;;;;;;6.55;6.25;;;;;;;-143.83;100.00;62900.06;5112343;28;20111;-62
2022/07/15 06:44:49;;;;;;;6.90;6.60;;;;;;;-143.83;100.00;62900.06;5112105;28;20499;-63
2022/07/15 06:47:14;;;;;;;7.10;6.80;;;;;;;-143.83;100.00;62900.06;5112397;28;20058;-61
2022/07/15 06:49:40;;;;;;;6.55;6.25;;;;;;;-143.83;100.00;62900.06;5112494;28;20023;-62
2022/07/15 06:52:05;;;;;;;6.70;6.40;;;;;;;-143.83;100.00;62900.06;5112601;28;20023;-63
2022/07/15 06:54:31;;;;;;;6.70;6.40;;;;;;;-143.83;100.00;62900.06;5112239;28;20501;-62
2022/07/15 06:57:01;;;;;;;6.70;6.40;;;;;;;-143.83;100.00;62900.06;5103870;28;20073;-63
2022/07/15 06:59:27;;;;;;;7.13;6.82;;;;;;;-143.83;100.00;62900.06;5111254;28;20031;-62
2022/07/15 07:01:53;;;;;;;7.05;6.75;;;;;;;-143.83;100.00;62900.06;5112012;28;20115;-62
2022/07/15 07:04:19;;;;;;;7.20;6.90;;;;;;;-143.83;100.00;62900.06;5112175;28;20102;-63
2022/07/15 07:06:45;;;;;;;7.00;6.70;;;;;;;-143.83;100.00;62900.06;5112504;28;20027;-62
2022/07/15 07:09:11;;;;;;;7.00;6.70;;;;;;;-143.83;100.00;62900.06;5112061;28;20460;-62
2022/07/15 07:11:37;;;;;;;7.13;6.82;;;;;;;-143.83;100.00;62900.06;5112353;28;20030;-63
2022/07/15 07:14:02;;;;;;;7.00;6.70;;;;;;;-143.83;100.00;62900.06;5112466;28;20098;-62
2022/07/15 07:16:28;;;;;;;7.10;6.80;;;;;;;-143.83;100.00;62900.06;5110980;28;20027;-63
2022/07/15 07:18:54;;;;;;;7.00;6.70;;;;;;;-143.83;100.00;62900.06;5109034;28;20043;-62
2022/07/15 07:21:20;;;;;;;7.15;6.85;;;;;;;-143.83;100.00;62900.06;5112296;28;20798;-62
2022/07/15 07:23:46;;;;;;;7.20;6.90;;;;;;;-143.83;100.00;62900.06;5112328;28;20019;-63
2022/07/15 07:26:12;;;;;;;7.25;6.95;;;;;;;-143.83;100.00;62900.06;5112310;28;20092;-62
2022/07/15 07:28:40;;;;;;;7.20;6.90;;;;;;;-143.83;100.00;62900.06;5111951;28;20020;-62
2022/07/15 07:31:09;;;;;;;7.30;7.00;;;;;;;-143.83;100.00;62900.06;5110955;28;20444;-62
2022/07/15 07:33:35;;;;;;;7.38;7.07;;;;;;;-143.83;100.00;62900.06;5111264;28;20180;-62
2022/07/15 07:36:03;;;;;;;7.10;6.80;;;;;;;-143.83;100.00;62900.06;5112129;28;20513;-63
2022/07/15 07:38:29;;;;;;;6.72;6.43;;;;;;;-143.83;100.00;62900.06;5111869;28;20080;-63
2022/07/15 07:40:54;;;;;;;6.90;6.60;;;;;;;-143.83;100.00;62900.06;5111792;28;20118;-62
2022/07/15 07:43:20;;;;;;;7.00;6.70;;;;;;;-143.83;100.00;62900.06;5098502;28;20077;-62
2022/07/15 07:45:46;;;;;;;7.07;6.78;;;;;;;-143.83;100.00;62900.06;5107410;28;20035;-62
2022/07/15 07:48:11;;;;;;;6.78;6.47;;;;;;;-143.83;100.00;62900.06;5111793;28;20034;-63
2022/07/15 07:50:38;;;;;;;7.20;6.90;;;;;;;-143.83;100.00;62900.06;5097967;28;20028;-63
2022/07/15 07:53:04;;;;;;;7.00;6.70;;;;;;;-143.83;100.00;62900.06;5101298;28;20102;-63
2022/07/15 07:55:29;;;;;;;6.80;6.50;;;;;;;-143.83;100.00;62900.06;5111390;28;20023;-63
2022/07/15 07:57:57;;;;;;;6.80;6.50;;;;;;;-143.83;100.00;62900.06;5098725;28;20478;-62
2022/07/15 08:00:26;;;;;;;6.80;6.50;;;;;;;-143.83;100.00;62900.06;5111633;28;20034;-62
2022/07/15 08:02:53;;;;;;;7.05;6.75;;;;;;;-143.83;100.00;62900.06;5102208;28;20028;-62
2022/07/15 08:05:19;;;;;;;7.00;6.70;;;;;;;-143.83;100.00;62900.06;5091079;28;20036;-63
2022/07/15 08:07:45;;;;;;;7.00;6.70;;;;;;;-143.83;100.00;62900.06;5096133;28;20055;-62
2022/07/15 08:10:12;;;;;;;6.78;6.47;;;;;;;-143.83;100.00;62900.06;5112308;28;20062;-62
2022/07/15 08:12:38;;;;;;;7.00;6.70;;;;;;;-143.83;100.00;62900.06;5111739;28;20023;-63
2022/07/15 08:15:06;;;;;;;7.00;6.70;;;;;;;-143.83;100.00;62900.06;5111462;28;20019;-62
2022/07/15 08:17:32;;;;;;;7.15;6.85;;;;;;;-143.83;100.00;62900.06;5111468;28;20129;-63
2022/07/15 08:19:57;;;;;;;6.88;6.57;;;;;;;-143.83;100.00;62900.06;5111712;28;20122;-63
2022/07/15 08:22:23;;;;;;;6.90;6.60;;;;;;;-143.83;100.00;62900.06;5098151;28;20024;-63
2022/07/15 08:24:51;;;;;;;7.00;6.70;;;;;;;-143.83;100.00;62900.06;5110527;28;20035;-63
2022/07/15 08:27:18;;;;;;;6.80;6.50;;;;;;;-143.83;100.00;62900.06;5111967;28;20043;-63
2022/07/15 08:29:44;;;;;;;6.90;6.60;;;;;;;-143.83;100.00;62900.06;5114786;28;20077;-62
2022/07/15 08:32:10;;;;;;;6.90;6.60;;;;;;;-143.83;100.00;62900.06;5115073;28;20251;-61
2022/07/15 08:34:35;;;;;;;7.00;6.70;;;;;;;-143.83;100.00;62900.06;5113830;28;20111;-62
2022/07/15 08:37:01;;;;;;;6.90;6.60;;;;;;;-143.83;100.00;62900.06;5114494;28;20016;-62
2022/07/15 08:39:26;;;;;;;7.00;6.70;;;;;;;-143.83;100.00;62900.06;5115162;28;20051;-62
2022/07/15 08:41:52;;;;;;;7.00;6.70;;;;;;;-143.83;100.00;62900.06;5114790;28;20490;-62
2022/07/15 08:44:18;;;;;;;6.97;6.68;;;;;;;-143.83;100.00;62900.06;5106820;28;20089;-62
2022/07/15 08:46:47;;;;;;;6.85;6.55;;;;;;;-143.83;100.00;62900.06;5108356;28;20058;-62
2022/07/15 08:49:19;;;;;;;6.90;6.60;;;;;;;-143.83;100.00;62900.06;5105821;28;20030;-63
2022/07/15 08:51:47;;;;;;;6.88;6.57;;;;;;;-143.83;100.00;62900.06;5114711;28;20049;-63
2022/07/15 08:54:14;;;;;;;6.90;6.60;;;;;;;-143.83;100.00;62900.06;5114660;28;20020;-62
2022/07/15 08:56:39;;;;;;;6.90;6.60;;;;;;;-143.83;100.00;62900.06;5114553;28;20051;-62
2022/07/15 08:59:06;;;;;;;6.90;6.60;;;;;;;-143.83;100.00;62900.06;5102083;28;20498;-62
2022/07/15 09:01:39;;;;;;;6.82;6.53;;;;;;;-143.83;100.00;62900.06;5114659;28;20019;-63
2022/07/15 09:04:05;;;;;;;6.68;6.38;;;;;;;-143.83;100.00;62900.06;5114736;28;20024;-62
2022/07/15 09:06:42;;;;;;;6.90;6.60;;;;;;;-143.83;100.00;62900.06;5114559;28;20422;-62
2022/07/15 09:09:24;;;;;;;6.90;6.60;;;;;;;-143.83;100.00;62900.06;5114448;28;20076;-61
2022/07/15 09:11:57;;;;;;;6.90;6.60;;;;;;;-143.83;100.00;62900.06;5113596;28;20027;-61
2022/07/15 09:14:28;;;;;;;6.80;6.50;;;;;;;-143.83;100.00;62900.06;5110369;28;20038;-62
2022/07/15 09:17:11;;;;;;;6.90;6.60;;;;;;;-143.83;100.00;62900.06;5108184;28;20024;-63
2022/07/15 09:20:06;;;;;;;6.80;6.50;;;;;;;-143.83;100.00;62900.06;5112594;28;20028;-62
2022/07/15 09:22:47;;;;;;;6.70;6.40;;;;;;;-143.83;100.00;62900.06;5105643;28;20031;-63
2022/07/15 09:25:12;;;;;;;6.80;6.50;;;;;;;-143.83;100.00;62900.06;5101487;27;20038;-62
2022/07/15 09:27:40;;;;;;;6.80;6.50;;;;;;;-143.83;100.00;62900.06;5114026;28;20019;-63
2022/07/15 09:33:38;;;;;;;6.80;6.50;;;;;;;-143.83;100.00;62900.06;5108382;27;20084;-62
2022/07/15 09:36:08;;;;;;;6.80;6.50;;;;;;;-143.83;100.00;62900.06;5110476;28;20019;-62
2022/07/15 09:38:46;;;;;;;6.90;6.60;;;;;;;-143.83;100.00;62900.06;5113648;28;20030;-62
2022/07/15 09:41:20;;;;;;;6.70;6.40;;;;;;;-143.83;100.00;62900.06;5112913;28;20424;-62
2022/07/15 09:43:53;;;;;;;;;;;;;;;-143.83;100.00;62900.06;5107629;27;20035;-61
2022/07/15 09:46:20;;;;;;;6.70;6.40;;;;;;;-143.83;100.00;62900.06;5107384;28;19914;-62
2022/07/15 09:48:48;;;;;;;6.97;6.68;;;;;;;-143.83;100.00;62900.06;5093339;28;20081;-63
2022/07/15 09:51:14;;;;;;;6.78;6.47;;;;;;;-143.83;100.00;62900.06;5107735;28;20020;-62
2022/07/15 09:53:40;;;;;;;7.00;6.70;;;;;;;-143.83;100.00;62900.06;5113373;28;20019;-62
2022/07/15 09:56:11;;;;;;;6.80;6.50;;;;;;;-143.83;100.00;62900.06;5113746;28;20123;-63
2022/07/15 09:58:39;;;;;;;6.88;6.57;;;;;;;-143.83;100.00;62900.06;5098827;28;20088;-63
2022/07/15 10:01:07;;;;;;;6.88;6.57;;;;;;;-143.83;100.00;62900.06;5113397;28;20494;-61
2022/07/15 10:03:35;;;;;;;6.82;6.53;;;;;;;-143.83;100.00;62900.06;5113338;28;20115;-64
2022/07/15 10:06:01;;;;;;;6.72;6.43;;;;;;;-143.83;100.00;62900.06;5113226;28;20402;-62
2022/07/15 10:08:28;;;;;;;6.70;6.40;;;;;;;-143.83;100.00;62900.06;5113185;28;20024;-62
2022/07/15 10:10:55;;;;;;;6.78;6.47;;;;;;;-143.83;100.00;62900.06;5113343;27;20027;-63
2022/07/15 10:13:43;;;;;;;6.90;6.60;;;;;;;-143.83;100.00;62900.06;5113055;28;20023;-62
2022/07/15 10:16:49;;;;;;;6.80;6.50;;;;;;;-143.83;100.00;62900.06;5113025;28;20509;-62
2022/07/15 10:19:42;;;;;;;6.63;6.32;;;;;;;-143.83;100.00;62900.06;5113198;28;20038;-62
2022/07/15 10:22:26;;;;;;;6.90;6.60;;;;;;;-143.83;100.00;62900.06;5112020;28;20031;-62
2022/07/15 10:24:54;;;;;;;;;;;;;;;-143.83;100.00;62900.06;5113390;28;20559;-61
2022/07/15 10:27:34;;;;;;;6.50;6.20;;;;;;;-143.83;100.00;62900.06;5113035;28;19976;-63
2022/07/15 10:30:04;;;;;;;6.90;6.60;;;;;;;-143.83;100.00;62900.06;5112631;28;20760;-61
2022/07/15 10:32:50;;;;;;;6.57;6.28;;;;;;;-143.83;100.00;62900.06;5112927;28;20084;-62
2022/07/15 10:35:51;;;;;;;6.50;6.20;;;;;;;-143.83;100.00;62900.06;5112591;28;20024;-62
2022/07/15 10:38:37;;;;;;;6.45;6.15;;;;;;;-143.83;100.00;62900.06;5102318;28;20035;-63
2022/07/15 10:41:07;;;;;;;6.65;6.35;;;;;;;-143.83;100.00;62900.06;5105747;28;20067;-62
2022/07/15 10:43:42;;;;;;;6.70;6.40;;;;;;;-143.83;100.00;62900.06;5112867;28;20096;-61
2022/07/15 10:46:16;;;;;;;6.60;6.30;;;;;;;-143.83;100.00;62900.06;5112737;28;20383;-62
2022/07/15 10:48:47;;;;;;;6.70;6.40;;;;;;;-143.83;100.00;62900.06;5112475;28;20036;-62
2022/07/15 10:51:42;;;;;;;6.90;6.60;;;;;;;-143.83;100.00;62900.06;5090785;28;20028;-62
2022/07/15 10:54:31;;;;;;;6.90;6.60;;;;;;;-143.83;100.00;62900.06;5108962;28;20046;-62
2022/07/15 10:56:56;;;;;;;6.80;6.50;;;;;;;-143.83;100.00;62900.06;5098425;28;20038;-62
2022/07/15 10:59:24;;;;;;;6.60;6.30;;;;;;;-143.83;100.00;62900.06;5112273;28;20031;-62
2022/07/15 11:01:58;;;;;;;6.60;6.30;;;;;;;-143.83;100.00;62900.06;5112527;28;20031;-63
2022/07/15 11:04:27;;;;;;;6.60;6.30;;;;;;;-143.83;100.00;62900.06;5112262;28;20020;-62
2022/07/15 11:07:02;;;;;;;6.40;6.10;;;;;;;-143.83;100.00;62900.06;5111058;28;20156;-62
2022/07/15 11:10:12;;;;;;;6.70;6.40;;;;;;;-143.83;100.00;62900.06;5112151;28;20024;-63
2022/07/15 11:12:49;;;;;;;6.75;6.45;;;;;;;-143.83;100.00;62900.06;5098682;28;20038;-61
2022/07/15 11:15:16;;;;;;;6.68;6.38;;;;;;;-143.83;100.00;62900.06;5111142;28;20052;-63
2022/07/15 11:17:47;;;;;;;6.90;6.60;;;;;;;-143.83;100.00;62900.06;5112037;28;20072;-63